Time;durP1;ratioP1;P1;durP2;ratioP2;P2;SDS_P1;SDS_P2;PMS_P1;PMS_P2;Temp;Humidity;BMP_temperature;BMP_pressure;BME280_temperature;BME280_humidity;BME280_pressure;Samples;Min_cycle;Max_cycle;Signal;HPM_P1;HPM_P2
2023/10/18 00:00:36;;;;;;;1.10;1.00;;;;;;;4.92;79.10;98035.78;5093042;28;20040;-60
2023/10/18 00:03:02;;;;;;;5.32;1.40;;;;;;;4.86;79.33;98042.75;5093237;28;20050;-61
2023/10/18 00:05:29;;;;;;;2.80;1.17;;;;;;;4.89;78.70;98034.41;5091999;28;20101;-60
2023/10/18 00:07:59;;;;;;;1.48;1.17;;;;;;;4.89;78.60;98046.75;5093360;28;20095;-60
2023/10/18 00:10:27;;;;;;;1.20;1.10;;;;;;;4.85;79.25;98041.13;5093156;28;20068;-59
2023/10/18 00:12:53;;;;;;;2.03;1.08;;;;;;;4.83;78.33;98045.06;5075220;28;20059;-61
2023/10/18 00:15:20;;;;;;;1.73;1.30;;;;;;;4.81;78.77;98034.75;5092651;28;20055;-61
2023/10/18 00:17:45;;;;;;;3.20;1.30;;;;;;;4.75;79.34;98040.94;5092715;28;20130;-62
2023/10/18 00:20:15;;;;;;;1.17;1.10;;;;;;;4.77;78.93;98037.06;5074259;28;20036;-61
2023/10/18 00:22:44;;;;;;;1.20;1.10;;;;;;;4.82;79.19;98043.44;5074457;28;20100;-60
2023/10/18 00:25:10;;;;;;;3.13;1.30;;;;;;;4.75;78.61;98041.75;5092530;28;20040;-60
2023/10/18 00:27:41;;;;;;;1.10;1.10;;;;;;;4.77;78.60;98049.41;5092449;28;20044;-61
2023/10/18 00:30:07;;;;;;;2.30;1.30;;;;;;;4.75;78.76;98048.81;5074199;28;20138;-62
2023/10/18 00:32:34;;;;;;;1.27;1.08;;;;;;;4.73;79.30;98048.25;5074069;28;20063;-61
2023/10/18 00:35:01;;;;;;;1.33;1.00;;;;;;;4.70;78.69;98054.75;5057655;28;20386;-60
2023/10/18 00:37:30;;;;;;;3.20;1.10;;;;;;;4.68;78.53;98045.53;5091853;28;20047;-62
2023/10/18 00:39:56;;;;;;;1.35;1.15;;;;;;;4.72;78.55;98055.34;5074626;28;20089;-62
2023/10/18 00:42:28;;;;;;;1.38;1.15;;;;;;;4.70;79.33;98057.38;5074165;28;20446;-61
2023/10/18 00:45:08;;;;;;;3.60;1.15;;;;;;;4.64;79.13;98053.06;5057567;28;20178;-61
2023/10/18 00:47:35;;;;;;;4.32;1.10;;;;;;;4.63;79.12;98056.72;5074043;28;20072;-61
2023/10/18 00:50:02;;;;;;;2.70;1.20;;;;;;;4.64;78.70;98055.69;5092128;28;20098;-62
2023/10/18 00:52:30;;;;;;;1.60;1.50;;;;;;;4.61;79.31;98061.41;5091924;28;20425;-61
2023/10/18 00:54:57;;;;;;;3.95;1.30;;;;;;;4.61;79.25;98050.91;5092099;28;20082;-63
2023/10/18 00:57:26;;;;;;;1.77;1.38;;;;;;;4.57;79.47;98055.03;5057206;28;20039;-60
2023/10/18 00:59:53;;;;;;;2.17;1.38;;;;;;;4.50;79.51;98060.41;5091366;28;20047;-61
2023/10/18 01:02:27;;;;;;;1.10;1.10;;;;;;;4.49;79.39;98061.41;5092011;28;20047;-61
2023/10/18 01:04:56;;;;;;;1.25;1.10;;;;;;;4.41;79.77;98066.22;5091635;28;20047;-61
2023/10/18 01:07:23;;;;;;;2.53;1.20;;;;;;;4.36;79.53;98064.28;5073667;28;20131;-59
2023/10/18 01:09:50;;;;;;;2.10;1.40;;;;;;;4.24;80.11;98064.31;5073580;28;20394;-60
2023/10/18 01:12:17;;;;;;;3.05;1.35;;;;;;;4.12;80.71;98068.75;5091107;28;20473;-61
2023/10/18 01:14:43;;;;;;;1.50;1.20;;;;;;;4.17;80.08;98068.84;5073425;28;20060;-62
2023/10/18 01:17:09;;;;;;;2.75;1.42;;;;;;;4.19;80.10;98074.66;5056723;28;20036;-61
2023/10/18 01:19:36;;;;;;;2.05;1.20;;;;;;;4.29;80.11;98076.72;5073412;28;20409;-60
2023/10/18 01:22:04;;;;;;;2.83;1.30;;;;;;;4.41;79.59;98079.34;5056953;28;20040;-60
2023/10/18 01:24:38;;;;;;;3.47;1.35;;;;;;;4.47;79.28;98079.22;5072477;28;20043;-61
2023/10/18 01:27:05;;;;;;;3.60;1.10;;;;;;;4.52;79.04;98078.53;5091701;28;20055;-60
2023/10/18 01:29:33;;;;;;;1.30;1.20;;;;;;;4.58;78.65;98082.06;5056493;28;20044;-61
2023/10/18 01:31:59;;;;;;;1.55;1.20;;;;;;;4.62;78.19;98081.38;5056698;28;20044;-61
2023/10/18 01:34:26;;;;;;;1.55;1.17;;;;;;;4.61;77.83;98081.59;5073253;28;20051;-61
2023/10/18 01:36:56;;;;;;;1.77;1.48;;;;;;;4.64;78.06;98083.75;5091592;28;20051;-61
2023/10/18 01:39:29;;;;;;;3.08;1.27;;;;;;;4.57;77.51;98086.53;5073743;28;20043;-60
2023/10/18 01:41:55;;;;;;;;;;;;;;;4.50;77.90;98077.94;5090945;28;20039;-60
2023/10/18 01:44:33;;;;;;;3.47;1.30;;;;;;;4.45;78.22;98080.50;5091163;28;19935;-62
2023/10/18 01:47:06;;;;;;;1.25;1.15;;;;;;;4.49;78.27;98089.50;5058389;28;20063;-61
2023/10/18 01:49:50;;;;;;;1.48;1.10;;;;;;;4.46;77.83;98087.31;5073417;28;20044;-61
2023/10/18 01:52:19;;;;;;;2.33;1.23;;;;;;;4.43;78.66;98085.16;5075480;28;20040;-60
2023/10/18 01:54:46;;;;;;;2.17;1.20;;;;;;;4.46;78.70;98098.63;5091303;28;20044;-60
2023/10/18 01:57:12;;;;;;;2.17;1.38;;;;;;;4.38;78.33;98096.31;5073101;28;20109;-61
2023/10/18 01:59:39;;;;;;;1.55;1.30;;;;;;;4.38;79.08;98100.78;5073285;28;20040;-60
2023/10/18 02:02:11;;;;;;;4.00;1.30;;;;;;;4.31;78.60;98091.19;5072948;28;20040;-60
2023/10/18 02:04:37;;;;;;;2.10;1.50;;;;;;;4.27;79.63;98105.81;5073022;28;20043;-61
2023/10/18 02:07:07;;;;;;;1.92;1.45;;;;;;;4.23;79.24;98103.84;5055911;28;20039;-60
2023/10/18 02:09:44;;;;;;;3.70;1.50;;;;;;;4.26;79.93;98103.41;5072974;28;20138;-60
2023/10/18 02:12:10;;;;;;;1.88;1.40;;;;;;;4.29;79.53;98109.03;5073452;28;20321;-61
2023/10/18 02:14:37;;;;;;;1.83;1.48;;;;;;;4.31;80.18;98114.03;5090823;28;20477;-62
2023/10/18 02:17:06;;;;;;;2.90;1.60;;;;;;;4.34;79.45;98116.19;5073217;28;20063;-60
2023/10/18 02:19:32;;;;;;;3.70;1.50;;;;;;;4.36;80.04;98116.75;5091105;28;20409;-61
2023/10/18 02:21:59;;;;;;;2.78;1.60;;;;;;;4.43;79.88;98114.81;5040133;28;20051;-61
2023/10/18 02:24:25;;;;;;;2.38;1.35;;;;;;;4.49;79.84;98113.09;5056791;28;20524;-61
2023/10/18 02:26:54;;;;;;;5.63;1.83;;;;;;;4.49;79.43;98118.34;5091319;28;20052;-60
2023/10/18 02:29:21;;;;;;;2.30;1.50;;;;;;;4.49;79.69;98118.34;5075227;28;20432;-58
2023/10/18 02:31:47;;;;;;;1.67;1.27;;;;;;;4.50;80.25;98106.81;5095218;28;20036;-61
2023/10/18 02:34:14;;;;;;;1.52;1.15;;;;;;;4.38;80.52;98098.16;5095048;28;20051;-62
2023/10/18 02:36:47;;;;;;;1.55;1.30;;;;;;;4.40;80.29;98106.59;5094763;28;20044;-59
2023/10/18 02:39:22;;;;;;;1.25;1.10;;;;;;;4.39;80.71;98108.44;5077611;28;20042;-60
2023/10/18 02:41:48;;;;;;;2.85;1.15;;;;;;;4.40;81.08;98110.03;5076785;28;20044;-61
2023/10/18 02:44:21;;;;;;;5.20;1.50;;;;;;;4.39;81.17;98110.25;5043377;28;20043;-61
2023/10/18 02:46:53;;;;;;;4.13;1.35;;;;;;;4.39;81.06;98115.50;5076406;28;20340;-61
2023/10/18 02:49:22;;;;;;;1.63;1.30;;;;;;;4.34;81.02;98103.06;5094816;28;20155;-60
2023/10/18 02:51:48;;;;;;;3.30;1.83;;;;;;;4.30;81.12;98102.72;5076487;28;20177;-61
2023/10/18 02:54:16;;;;;;;1.98;1.33;;;;;;;4.30;81.51;98105.34;5076707;28;20123;-60
2023/10/18 02:56:50;;;;;;;2.17;1.25;;;;;;;4.30;81.33;98109.81;5043276;28;20048;-60
2023/10/18 02:59:21;;;;;;;3.22;1.85;;;;;;;4.23;81.51;98094.16;5059654;28;20042;-60
2023/10/18 03:01:49;;;;;;;1.55;1.10;;;;;;;4.21;81.85;98098.06;5094465;28;20047;-62
2023/10/18 03:04:16;;;;;;;6.10;1.50;;;;;;;4.18;81.73;98098.53;5094299;28;20413;-59
2023/10/18 03:06:43;;;;;;;2.70;1.27;;;;;;;4.19;82.47;98108.78;5094523;28;20043;-61
2023/10/18 03:09:26;;;;;;;2.05;1.05;;;;;;;4.14;82.24;98103.41;5076311;28;20048;-59
2023/10/18 03:11:56;;;;;;;1.70;1.20;;;;;;;4.17;82.53;98108.19;5094301;28;20508;-60
2023/10/18 03:14:23;;;;;;;3.30;1.10;;;;;;;4.23;81.97;98107.28;5076462;28;20067;-60
2023/10/18 03:16:49;;;;;;;2.55;1.40;;;;;;;4.29;82.71;98114.25;5076154;28;20046;-60
2023/10/18 03:19:18;;;;;;;4.43;1.20;;;;;;;4.34;82.20;98103.06;5075647;28;20063;-61
2023/10/18 03:21:50;;;;;;;1.77;1.20;;;;;;;4.42;81.80;98109.81;5075957;28;20074;-60
2023/10/18 03:24:19;;;;;;;2.78;1.40;;;;;;;4.46;81.60;98109.09;5094148;28;20040;-61
2023/10/18 03:26:46;;;;;;;1.70;1.17;;;;;;;4.53;80.53;98111.63;5075957;28;20060;-61
2023/10/18 03:29:11;;;;;;;3.10;1.23;;;;;;;4.55;80.90;98101.69;5093901;28;20040;-61
2023/10/18 03:31:44;;;;;;;1.33;1.15;;;;;;;4.55;81.05;98112.19;5094106;28;20070;-62
2023/10/18 03:34:19;;;;;;;2.58;1.40;;;;;;;4.58;80.91;98109.09;5093959;28;20064;-62
2023/10/18 03:36:49;;;;;;;2.13;1.33;;;;;;;4.55;80.65;98112.19;5094109;28;20040;-62
2023/10/18 03:39:18;;;;;;;5.15;1.42;;;;;;;4.60;80.38;98107.06;5094430;28;20171;-61
2023/10/18 03:41:46;;;;;;;5.53;1.50;;;;;;;4.58;80.99;98108.31;5075848;28;20116;-61
2023/10/18 03:44:20;;;;;;;3.10;1.63;;;;;;;4.50;80.47;98094.53;5075305;28;20425;-61
2023/10/18 03:46:47;;;;;;;2.00;1.60;;;;;;;4.54;81.17;98105.34;5075399;28;20051;-62
2023/10/18 03:49:22;;;;;;;3.17;1.25;;;;;;;4.55;81.28;98104.31;5075222;28;20051;-61
2023/10/18 03:51:55;;;;;;;2.47;1.25;;;;;;;4.56;81.53;98111.19;5075084;28;20071;-61
2023/10/18 03:54:23;;;;;;;1.83;1.23;;;;;;;4.58;81.70;98114.34;5075374;28;20071;-61
2023/10/18 03:56:53;;;;;;;1.52;1.30;;;;;;;4.64;81.41;98116.06;5075031;28;20506;-61
2023/10/18 03:59:23;;;;;;;2.38;1.45;;;;;;;4.67;81.42;98120.84;5075042;28;20054;-60
2023/10/18 04:02:07;;;;;;;3.75;1.58;;;;;;;4.69;80.51;98115.38;5093163;28;20048;-59
2023/10/18 04:04:35;;;;;;;3.88;1.30;;;;;;;4.67;81.51;98118.22;5092869;28;20036;-61
2023/10/18 04:07:26;;;;;;;2.95;1.55;;;;;;;4.66;80.94;98129.75;5093181;28;20083;-61
2023/10/18 04:10:01;;;;;;;1.60;1.50;;;;;;;4.67;81.26;98122.69;5092567;28;20547;-62
2023/10/18 04:12:27;;;;;;;1.70;1.38;;;;;;;4.66;80.92;98124.50;5093341;28;20036;-61
2023/10/18 04:15:01;;;;;;;2.78;1.50;;;;;;;4.75;81.54;98124.94;5071081;28;20063;-61
2023/10/18 04:17:36;;;;;;;1.55;1.38;;;;;;;4.75;80.56;98125.75;5072970;28;20040;-60
2023/10/18 04:20:22;;;;;;;2.47;2.03;;;;;;;4.80;80.40;98134.78;5072605;28;20230;-59
2023/10/18 04:22:49;;;;;;;1.83;1.30;;;;;;;4.81;80.96;98131.13;5072591;28;20417;-61
2023/10/18 04:25:25;;;;;;;3.58;1.30;;;;;;;4.84;80.60;98128.81;5071481;28;20032;-61
2023/10/18 04:27:53;;;;;;;2.83;1.45;;;;;;;4.89;80.73;98139.44;5072483;28;20556;-62
2023/10/18 04:30:22;;;;;;;2.35;1.60;;;;;;;4.82;80.61;98132.69;5072524;28;20044;-62
2023/10/18 04:32:54;;;;;;;2.45;1.40;;;;;;;4.83;80.62;98134.31;5072483;28;20409;-61
2023/10/18 04:35:25;;;;;;;1.25;1.15;;;;;;;4.86;79.89;98136.47;5072469;28;20067;-63
2023/10/18 04:37:57;;;;;;;4.30;1.55;;;;;;;4.85;79.65;98138.28;5072307;28;20463;-61
2023/10/18 04:40:25;;;;;;;3.15;1.20;;;;;;;4.90;79.85;98138.41;5070594;28;20414;-60
2023/10/18 04:42:57;;;;;;;1.40;1.17;;;;;;;4.99;80.12;98144.09;5071890;28;20045;-61
2023/10/18 04:45:23;;;;;;;2.42;1.48;;;;;;;5.01;79.63;98142.84;5072230;28;20082;-61
2023/10/18 04:48:06;;;;;;;2.33;1.27;;;;;;;5.03;79.28;98147.03;5072139;28;20230;-59
2023/10/18 04:50:39;;;;;;;3.72;1.70;;;;;;;5.01;78.84;98145.47;5070525;28;20410;-60
2023/10/18 04:53:14;;;;;;;1.50;1.40;;;;;;;5.11;78.84;98149.31;5054172;28;20068;-60
2023/10/18 04:55:46;;;;;;;1.98;1.42;;;;;;;5.13;78.57;98158.56;5070351;28;20056;-62
2023/10/18 04:58:15;;;;;;;3.42;1.55;;;;;;;5.11;79.34;98155.38;5071712;28;20120;-62
2023/10/18 05:00:57;;;;;;;2.05;1.40;;;;;;;5.15;79.25;98153.09;5071641;28;20071;-59
2023/10/18 05:03:30;;;;;;;2.33;1.42;;;;;;;5.16;79.08;98150.22;5070456;28;20052;-61
2023/10/18 05:05:59;;;;;;;2.72;1.70;;;;;;;5.24;78.30;98146.44;5071690;28;20040;-59
2023/10/18 05:08:24;;;;;;;6.53;1.42;;;;;;;5.25;78.29;98150.66;5071655;28;20052;-61
2023/10/18 05:11:00;;;;;;;2.78;1.80;;;;;;;5.29;78.71;98156.25;5071475;28;20060;-60
2023/10/18 05:13:36;;;;;;;3.83;1.40;;;;;;;5.28;78.36;98155.44;5070603;28;20079;-60
2023/10/18 05:16:04;;;;;;;7.30;1.95;;;;;;;5.32;77.66;98148.69;5091602;28;20063;-58
2023/10/18 05:18:30;;;;;;;1.88;1.48;;;;;;;5.38;78.28;98153.03;5091611;28;20412;-58
2023/10/18 05:20:58;;;;;;;5.55;1.70;;;;;;;5.34;77.33;98151.88;5073320;28;20036;-59
2023/10/18 05:23:27;;;;;;;3.25;1.58;;;;;;;5.37;77.54;98148.00;5073358;28;20043;-59
2023/10/18 05:26:09;;;;;;;1.80;1.70;;;;;;;5.41;77.56;98155.19;5073628;28;20492;-60
2023/10/18 05:28:52;;;;;;;3.22;1.85;;;;;;;5.45;78.08;98160.78;5091851;28;20044;-59
2023/10/18 05:34:06;;;;;;;2.10;1.73;;;;;;;5.36;77.16;98156.91;5042836;28;20044;-59
2023/10/18 05:36:35;;;;;;;2.20;1.52;;;;;;;5.39;77.12;98159.09;5089952;28;20040;-59
2023/10/18 05:41:48;;;;;;;2.42;1.60;;;;;;;5.45;77.15;98166.81;5091524;28;20040;-59
2023/10/18 05:44:14;;;;;;;1.88;1.27;;;;;;;5.43;77.07;98160.19;5090848;28;20126;-59
2023/10/18 05:46:39;;;;;;;2.38;1.60;;;;;;;5.44;77.13;98167.03;5073007;28;20050;-59
2023/10/18 05:49:15;;;;;;;1.58;1.40;;;;;;;5.48;76.25;98168.19;5053797;28;20083;-57
2023/10/18 05:54:28;;;;;;;4.47;1.63;;;;;;;5.33;77.14;98170.53;5091152;28;20054;-58
2023/10/18 05:56:56;;;;;;;3.95;1.70;;;;;;;5.37;76.57;98174.28;5091326;28;20035;-59
2023/10/18 06:01:49;;;;;;;2.30;1.58;;;;;;;5.39;76.49;98175.66;5084895;28;20430;-59
2023/10/18 06:04:23;;;;;;;2.50;1.75;;;;;;;5.38;77.17;98183.75;5054978;28;20495;-59
2023/10/18 06:06:57;;;;;;;3.53;1.55;;;;;;;5.46;76.71;98173.66;5085399;28;20105;-59
2023/10/18 06:09:32;;;;;;;2.83;1.60;;;;;;;5.51;76.29;98185.31;5077145;28;20398;-59
2023/10/18 06:12:00;;;;;;;2.85;1.73;;;;;;;5.54;75.69;98187.50;5077046;28;20109;-58
2023/10/18 06:14:33;;;;;;;2.08;1.80;;;;;;;5.59;75.61;98180.50;5095436;28;20059;-59
2023/10/18 06:18:00;;;;;;;2.67;1.98;;;;;;;5.62;74.28;98182.66;5095647;28;20040;-59
2023/10/18 06:19:56;;;;;;;4.10;1.50;;;;;;;5.65;74.05;98189.28;5063703;28;20097;-58
2023/10/18 06:22:28;;;;;;;2.38;1.42;;;;;;;5.73;74.04;98191.50;5076037;28;20118;-59
2023/10/18 06:25:03;;;;;;;2.50;1.45;;;;;;;5.79;74.69;98189.78;5094977;28;20040;-59
2023/10/18 06:27:38;;;;;;;2.42;1.83;;;;;;;5.85;73.71;98184.41;5094407;28;20517;-58
2023/10/18 06:30:14;;;;;;;3.30;1.40;;;;;;;5.90;73.10;98183.66;5075693;28;20417;-59
2023/10/18 06:32:44;;;;;;;2.85;1.60;;;;;;;5.98;72.09;98193.06;5094593;28;20048;-59
2023/10/18 06:35:26;;;;;;;2.50;1.60;;;;;;;5.99;72.09;98179.66;5094565;28;20140;-58
2023/10/18 06:37:52;;;;;;;3.10;1.75;;;;;;;5.89;72.50;98185.50;5076292;28;20040;-59
2023/10/18 06:40:22;;;;;;;2.97;1.70;;;;;;;6.01;71.90;98192.59;5094662;28;20485;-59
2023/10/18 06:42:49;;;;;;;3.42;1.55;;;;;;;6.07;71.93;98186.38;5095324;28;20044;-60
2023/10/18 06:45:17;;;;;;;2.28;1.65;;;;;;;6.15;71.44;98183.34;5076144;28;20044;-60
2023/10/18 06:47:45;;;;;;;3.00;1.40;;;;;;;6.20;70.91;98183.41;5094007;28;20082;-59
2023/10/18 06:50:19;;;;;;;2.90;1.65;;;;;;;6.17;71.16;98186.53;5094374;28;20637;-57
2023/10/18 06:52:52;;;;;;;1.42;1.33;;;;;;;6.26;70.99;98190.34;5060483;28;20469;-59
2023/10/18 06:55:35;;;;;;;1.60;1.50;;;;;;;6.35;70.54;98182.88;5076317;28;20155;-60
2023/10/18 06:58:41;;;;;;;1.77;1.50;;;;;;;6.44;70.13;98178.81;5094015;28;20052;-59
2023/10/18 07:04:27;;;;;;;1.65;1.30;;;;;;;6.47;69.37;98180.97;5031677;28;20543;-58
2023/10/18 07:06:54;;;;;;;3.90;1.50;;;;;;;6.54;69.34;98184.22;5089333;28;20148;-59
2023/10/18 07:09:26;;;;;;;3.65;1.80;;;;;;;6.58;68.89;98182.69;5094354;28;20044;-57
2023/10/18 07:12:03;;;;;;;4.28;1.55;;;;;;;6.61;68.70;98189.31;5094211;28;20040;-58
2023/10/18 07:14:32;;;;;;;4.72;1.70;;;;;;;6.64;67.85;98182.78;5059782;28;20060;-59
2023/10/18 07:17:01;;;;;;;4.97;1.67;;;;;;;6.64;68.05;98180.16;5093264;28;20090;-59
2023/10/18 07:22:06;;;;;;;3.90;1.70;;;;;;;6.55;68.56;98183.19;5093809;28;20074;-58
2023/10/18 07:24:36;;;;;;;7.90;1.70;;;;;;;6.65;67.66;98189.63;5060946;28;20493;-59
2023/10/18 07:27:09;;;;;;;2.65;1.42;;;;;;;6.76;67.41;98192.16;5093745;28;20047;-58
2023/10/18 07:29:46;;;;;;;3.03;1.70;;;;;;;6.94;66.68;98190.31;5076459;28;20044;-57
2023/10/18 07:32:15;;;;;;;3.92;1.92;;;;;;;7.01;66.10;98186.47;5043417;28;20040;-56
2023/10/18 07:34:42;;;;;;;3.75;1.85;;;;;;;7.08;65.91;98193.41;5075457;28;20040;-57
2023/10/18 07:37:18;;;;;;;3.60;1.67;;;;;;;7.00;65.60;98202.50;5058933;28;20130;-57
2023/10/18 07:39:48;;;;;;;2.63;1.67;;;;;;;7.07;65.39;98189.97;5042133;28;20068;-57
2023/10/18 07:42:19;;;;;;;1.95;1.67;;;;;;;7.25;65.13;98202.06;5042713;28;20075;-57
2023/10/18 07:44:53;;;;;;;1.95;1.73;;;;;;;7.32;64.35;98196.59;5059037;28;20047;-59
2023/10/18 07:47:20;;;;;;;3.22;1.80;;;;;;;7.37;64.58;98204.59;5092814;28;20125;-58
2023/10/18 07:49:46;;;;;;;3.42;1.80;;;;;;;7.23;63.62;98196.22;5093676;28;20154;-59
2023/10/18 07:52:13;;;;;;;1.73;1.45;;;;;;;7.23;64.23;98204.94;5058417;28;20048;-58
2023/10/18 07:54:39;;;;;;;3.20;1.83;;;;;;;7.39;64.06;98207.78;5075079;28;20532;-60
2023/10/18 07:57:15;;;;;;;4.35;2.30;;;;;;;7.46;63.19;98206.53;5085289;28;20051;-60
2023/10/18 07:59:48;;;;;;;4.13;2.17;;;;;;;7.47;63.39;98208.16;5060293;28;20096;-57
2023/10/18 08:02:23;;;;;;;4.97;2.75;;;;;;;7.50;62.90;98214.78;5058710;28;20122;-61
2023/10/18 08:04:51;;;;;;;4.57;2.50;;;;;;;7.47;63.04;98217.88;5093143;28;20051;-59
2023/10/18 08:07:21;;;;;;;4.10;2.38;;;;;;;7.45;63.14;98222.63;5093010;28;20508;-58
2023/10/18 08:09:57;;;;;;;4.63;2.37;;;;;;;7.38;62.80;98216.72;5093198;28;20131;-59
2023/10/18 08:12:33;;;;;;;1.98;1.73;;;;;;;7.43;62.71;98217.56;5076248;28;20517;-58
2023/10/18 08:14:59;;;;;;;5.47;1.63;;;;;;;7.31;62.58;98211.63;5092702;28;20051;-59
2023/10/18 08:17:29;;;;;;;5.72;1.67;;;;;;;7.40;63.17;98225.97;5092778;28;20114;-59
2023/10/18 08:22:51;;;;;;;5.13;2.10;;;;;;;7.58;62.61;98216.97;5060793;28;20502;-59
2023/10/18 08:25:42;;;;;;;3.00;2.25;;;;;;;7.59;61.80;98223.84;5057962;28;20101;-60
2023/10/18 08:28:06;;;;;;;2.88;1.70;;;;;;;7.55;61.76;98221.94;5056697;28;20044;-59
2023/10/18 08:33:10;;;;;;;3.17;1.63;;;;;;;7.66;60.89;98228.94;5054406;28;20094;-60
2023/10/18 08:35:36;;;;;;;2.10;1.70;;;;;;;7.67;61.27;98225.22;5072190;28;20449;-59
2023/10/18 08:38:02;;;;;;;2.70;1.55;;;;;;;7.58;60.97;98234.63;5091872;28;20079;-59
2023/10/18 08:43:28;;;;;;;1.98;1.50;;;;;;;7.63;61.13;98232.06;5092128;28;20068;-60
2023/10/18 08:45:58;;;;;;;1.58;1.42;;;;;;;7.79;60.71;98227.75;5092054;28;20044;-58
2023/10/18 08:48:38;;;;;;;2.28;1.40;;;;;;;7.93;60.20;98226.31;5057171;28;20426;-60
2023/10/18 08:51:04;;;;;;;;;;;;;;;7.68;60.11;98224.22;5059668;28;20085;-60
2023/10/18 08:53:31;;;;;;;1.92;1.30;;;;;;;7.71;60.05;98223.72;5091953;28;20022;-59
2023/10/18 08:55:57;;;;;;;1.73;1.30;;;;;;;7.83;59.97;98216.47;5092152;28;20566;-57
2023/10/18 08:58:28;;;;;;;1.25;1.20;;;;;;;7.82;60.20;98214.84;5091945;28;20173;-56
2023/10/18 09:03:24;;;;;;;2.78;1.65;;;;;;;7.60;60.73;98214.09;5071900;28;20022;-60
2023/10/18 09:06:09;;;;;;;2.58;1.30;;;;;;;7.63;60.89;98214.38;5054970;28;20146;-59
2023/10/18 09:08:41;;;;;;;1.92;1.48;;;;;;;7.64;60.65;98212.53;5076540;28;20064;-59
2023/10/18 09:11:22;;;;;;;1.92;1.45;;;;;;;7.64;61.08;98213.34;5091698;28;20028;-59
2023/10/18 09:14:07;;;;;;;1.67;1.45;;;;;;;7.70;60.49;98220.25;5091343;28;20047;-59
2023/10/18 09:16:38;;;;;;;1.55;1.38;;;;;;;7.82;59.74;98214.84;5072920;28;20459;-59
2023/10/18 09:19:06;;;;;;;1.98;1.45;;;;;;;7.77;59.64;98217.44;5073729;28;20040;-59
2023/10/18 09:22:05;;;;;;;1.58;1.40;;;;;;;7.63;59.71;98213.59;5091151;28;20413;-61
2023/10/18 09:24:29;;;;;;;2.97;1.48;;;;;;;7.50;60.04;98212.94;5089187;28;20052;-59
2023/10/18 09:26:57;;;;;;;2.35;1.13;;;;;;;7.49;60.14;98216.59;5072683;28;20051;-59
2023/10/18 09:29:26;;;;;;;3.80;1.30;;;;;;;7.64;59.32;98207.25;5039874;28;20044;-60
2023/10/18 09:31:54;;;;;;;2.28;1.40;;;;;;;7.82;59.42;98220.13;5073144;28;20040;-59
2023/10/18 09:34:21;;;;;;;2.65;1.40;;;;;;;7.85;58.74;98208.28;5073420;28;20505;-59
2023/10/18 09:36:56;;;;;;;2.00;1.23;;;;;;;7.93;59.32;98208.63;5091222;28;20039;-60
2023/10/18 09:39:37;;;;;;;2.70;1.38;;;;;;;8.07;59.28;98206.41;5073121;28;20044;-59
2023/10/18 09:42:12;;;;;;;1.58;1.40;;;;;;;8.16;58.85;98212.03;5091619;28;20432;-59
2023/10/18 09:44:41;;;;;;;2.30;1.52;;;;;;;8.25;58.58;98207.88;5091144;28;20529;-59
2023/10/18 09:47:08;;;;;;;1.85;1.50;;;;;;;8.30;58.46;98200.00;5073088;28;20047;-58
2023/10/18 09:49:34;;;;;;;3.08;1.40;;;;;;;8.32;58.64;98211.09;5090977;28;20459;-59
2023/10/18 09:52:04;;;;;;;2.03;1.30;;;;;;;8.25;57.88;98207.88;5072105;28;20047;-60
2023/10/18 09:54:36;;;;;;;3.17;1.30;;;;;;;8.06;58.53;98206.63;5073088;28;20501;-60
2023/10/18 09:57:03;;;;;;;2.78;1.38;;;;;;;8.05;58.25;98199.78;5090661;28;20044;-59
2023/10/18 09:59:33;;;;;;;3.22;1.70;;;;;;;8.05;58.37;98202.41;5071922;28;20051;-58
2023/10/18 10:02:00;;;;;;;1.40;1.30;;;;;;;7.94;57.98;98204.97;5072833;28;20032;-60
2023/10/18 10:04:32;;;;;;;1.55;1.45;;;;;;;7.95;58.29;98197.84;5056654;28;20036;-59
2023/10/18 10:09:46;;;;;;;3.35;1.38;;;;;;;8.08;58.65;98201.91;5075937;28;20044;-59
2023/10/18 10:12:19;;;;;;;2.28;1.80;;;;;;;8.14;58.39;98201.69;5090172;28;20051;-57
2023/10/18 10:14:45;;;;;;;3.28;1.40;;;;;;;8.23;58.42;98209.97;5069254;28;20049;-60
2023/10/18 10:17:18;;;;;;;5.15;1.73;;;;;;;8.19;58.59;98206.25;5070880;28;20513;-60
2023/10/18 10:19:52;;;;;;;3.10;1.30;;;;;;;8.19;58.60;98203.59;5069819;28;20418;-60
2023/10/18 10:22:24;;;;;;;1.80;1.50;;;;;;;8.07;58.24;98203.75;5070419;28;20131;-59
2023/10/18 10:25:11;;;;;;;1.30;1.20;;;;;;;8.06;58.25;98196.91;5053306;28;20041;-60
2023/10/18 10:30:25;;;;;;;2.05;1.40;;;;;;;8.07;58.65;98198.47;5070532;28;20561;-56
2023/10/18 10:32:53;;;;;;;2.00;1.40;;;;;;;8.16;58.36;98204.91;5069212;28;20056;-60
2023/10/18 10:35:24;;;;;;;3.08;1.30;;;;;;;8.32;58.07;98203.19;5069063;28;20075;-60
2023/10/18 10:38:06;;;;;;;2.22;1.40;;;;;;;8.37;58.03;98203.22;5052656;28;20144;-59
2023/10/18 10:43:08;;;;;;;1.75;1.40;;;;;;;8.32;58.02;98208.44;5070402;28;20599;-59
2023/10/18 10:45:39;;;;;;;3.88;1.48;;;;;;;8.32;57.69;98212.94;5070509;28;20048;-59
2023/10/18 10:51:16;;;;;;;2.85;1.77;;;;;;;8.52;58.63;98207.06;5072981;28;20071;-57
2023/10/18 10:53:57;;;;;;;2.67;1.77;;;;;;;8.38;58.76;98204.00;5074061;28;20178;-57
2023/10/18 10:56:32;;;;;;;3.45;1.85;;;;;;;8.51;58.52;98203.63;5072768;28;20129;-60
2023/10/18 10:59:43;;;;;;;7.25;2.70;;;;;;;8.58;57.82;98198.91;5055990;28;20504;-61
2023/10/18 11:01:44;;;;;;;3.55;2.25;;;;;;;8.58;58.84;98206.06;5052900;28;20049;-58
2023/10/18 11:04:27;;;;;;;4.72;2.00;;;;;;;8.62;58.48;98210.59;5053987;28;20045;-59
2023/10/18 11:06:57;;;;;;;2.85;1.70;;;;;;;8.64;58.46;98208.47;5062879;28;20426;-58
2023/10/18 11:09:33;;;;;;;3.72;1.80;;;;;;;8.72;58.73;98207.22;5074031;28;20055;-57
2023/10/18 11:12:04;;;;;;;4.00;2.05;;;;;;;8.81;58.73;98205.69;5072059;28;20036;-57
2023/10/18 11:14:30;;;;;;;;;;;;;;;8.85;58.16;98203.31;5078569;28;20421;-59
2023/10/18 11:19:45;;;;;;;4.28;2.60;;;;;;;8.69;58.74;98204.28;5094009;28;20054;-57
2023/10/18 11:22:14;;;;;;;;;;;;;;;8.67;59.72;98207.19;5094450;28;20078;-61
2023/10/18 11:24:41;;;;;;;2.65;1.90;;;;;;;8.63;59.00;98214.03;5075500;28;20313;-59
2023/10/18 11:27:10;;;;;;;6.60;2.13;;;;;;;8.59;59.29;98207.66;5075499;28;20451;-59
2023/10/18 11:29:41;;;;;;;2.83;1.90;;;;;;;8.50;60.36;98203.88;5093619;28;20128;-60
2023/10/18 11:32:15;;;;;;;6.55;1.92;;;;;;;8.53;60.21;98206.00;5093718;28;20050;-57
2023/10/18 11:34:43;;;;;;;3.70;1.98;;;;;;;8.48;59.73;98201.50;5059943;28;20048;-57
2023/10/18 11:37:13;;;;;;;3.97;1.90;;;;;;;8.41;59.96;98199.09;5075485;28;20081;-58
2023/10/18 11:39:43;;;;;;;2.28;1.77;;;;;;;8.37;60.20;98203.22;5075438;28;20089;-58
2023/10/18 11:42:10;;;;;;;2.67;1.73;;;;;;;8.45;60.53;98214.41;5093507;28;20131;-59
2023/10/18 11:44:39;;;;;;;1.88;1.50;;;;;;;8.34;60.59;98198.44;5075108;28;20044;-58
2023/10/18 11:47:18;;;;;;;2.67;1.60;;;;;;;8.45;61.18;98211.78;5093441;28;20044;-57
2023/10/18 11:49:46;;;;;;;2.83;1.60;;;;;;;8.48;60.99;98193.59;5093136;28;20095;-60
2023/10/18 11:52:16;;;;;;;2.45;1.77;;;;;;;8.45;60.95;98196.72;5093485;28;20047;-59
2023/10/18 11:54:43;;;;;;;2.28;2.00;;;;;;;8.36;61.15;98195.56;5093305;28;20047;-59
2023/10/18 11:57:29;;;;;;;1.73;1.63;;;;;;;8.34;61.79;98189.72;5093367;28;20047;-59
2023/10/18 11:59:56;;;;;;;2.60;1.90;;;;;;;8.34;61.86;98190.53;5075296;28;20410;-59
2023/10/18 12:02:28;;;;;;;2.88;1.90;;;;;;;8.30;62.13;98186.81;5080864;28;20457;-59
2023/10/18 12:04:55;;;;;;;2.90;1.90;;;;;;;8.33;62.74;98182.88;5088062;28;20040;-61
2023/10/18 12:07:22;;;;;;;3.65;1.70;;;;;;;8.43;63.07;98193.53;5068649;28;20048;-60
2023/10/18 12:09:52;;;;;;;3.40;2.00;;;;;;;8.41;62.95;98185.06;5074597;28;20032;-59
2023/10/18 12:12:24;;;;;;;2.78;2.00;;;;;;;8.23;63.40;98186.19;5093162;28;20134;-59
2023/10/18 12:14:50;;;;;;;5.43;2.15;;;;;;;8.18;63.93;98184.34;5093080;28;20513;-57
2023/10/18 12:17:16;;;;;;;2.85;1.80;;;;;;;8.25;64.25;98184.13;5092867;28;20306;-59
2023/10/18 12:19:42;;;;;;;2.30;1.85;;;;;;;8.14;64.26;98185.06;5092509;28;20079;-59
2023/10/18 12:22:15;;;;;;;2.47;1.80;;;;;;;8.02;64.91;98187.06;5092840;28;20493;-60
2023/10/18 12:24:41;;;;;;;3.92;2.22;;;;;;;7.81;66.18;98183.44;5092646;28;20418;-59
2023/10/18 12:30:09;;;;;;;5.72;1.98;;;;;;;7.62;67.48;98188.28;5058009;28;20083;-59
2023/10/18 12:32:50;;;;;;;3.53;2.22;;;;;;;7.56;68.66;98179.50;5073990;28;20060;-58
2023/10/18 12:35:19;;;;;;;3.50;2.17;;;;;;;7.63;69.28;98188.00;5091876;28;20508;-60
2023/10/18 12:37:51;;;;;;;2.03;1.80;;;;;;;7.63;68.41;98193.28;5092417;28;20044;-58
2023/10/18 12:40:40;;;;;;;3.15;2.25;;;;;;;7.61;68.65;98181.38;5092347;28;20040;-60
2023/10/18 12:43:07;;;;;;;3.67;1.98;;;;;;;7.72;69.03;98193.66;5092320;28;20040;-58
2023/10/18 12:45:45;;;;;;;5.90;2.05;;;;;;;7.69;68.07;98186.22;5073831;28;20036;-59